Time,TemperatureF,DewpointF,PressureIn,WindDirection,WindDirectionDegrees,WindSpeedMPH,WindSpeedGustMPH,Humidity,HourlyPrecipIn,Conditions,Clouds,dailyrainin,SoftwareType,DateUTC
2013-02-17 00:02:00,19.0,-99.9,-100.00,East,83,2.0,2.0,-999,0.00,,,0.00,,2013-02-17 06:02:00,
2013-02-17 00:11:00,19.0,-99.9,-100.00,ESE,115,3.0,4.0,-999,0.00,,,0.00,,2013-02-17 06:11:00,
2013-02-17 00:22:00,19.0,-99.9,-100.00,ESE,115,3.0,4.0,-999,0.00,,,0.00,,2013-02-17 06:22:00,
2013-02-17 00:32:00,19.0,-99.9,-100.00,ESE,115,3.0,4.0,-999,0.00,,,0.00,,2013-02-17 06:32:00,
2013-02-17 00:42:00,19.0,-99.9,-100.00,ESE,122,3.0,4.0,-999,0.00,,,0.00,,2013-02-17 06:42:00,
2013-02-17 00:52:00,19.0,-99.9,-100.00,ESE,122,3.0,4.0,-999,0.00,,,0.00,,2013-02-17 06:52:00,
2013-02-17 01:02:00,19.0,-99.9,-100.00,ESE,122,3.0,4.0,-999,0.00,,,0.00,,2013-02-17 07:02:00,
2013-02-17 01:11:00,19.0,-99.9,-100.00,SE,125,3.0,4.0,-999,0.00,,,0.00,,2013-02-17 07:11:00,
2013-02-17 01:22:00,19.0,-99.9,-100.00,SE,125,3.0,4.0,-999,0.00,,,0.00,,2013-02-17 07:22:00,
2013-02-17 01:32:00,19.0,-99.9,-100.00,SE,125,3.0,4.0,-999,0.00,,,0.00,,2013-02-17 07:32:00,
2013-02-17 01:42:00,19.0,-99.9,-100.00,ESE,106,3.0,4.0,-999,0.00,,,-99.99,,2013-02-17 07:42:00,
2013-02-17 01:52:00,19.0,-99.9,-100.00,ESE,106,3.0,4.0,-999,0.00,,,-99.99,,2013-02-17 07:52:00,
2013-02-17 02:02:00,19.0,-99.9,-100.00,ESE,106,3.0,4.0,-999,0.00,,,-99.99,,2013-02-17 08:02:00,
2013-02-17 02:11:00,18.0,-99.9,-100.00,East,98,2.0,4.0,-999,0.00,,,0.00,,2013-02-17 08:11:00,
2013-02-17 02:22:00,18.0,-99.9,-100.00,East,98,2.0,4.0,-999,0.00,,,0.00,,2013-02-17 08:22:00,
2013-02-17 02:32:00,18.0,-99.9,-100.00,East,98,2.0,4.0,-999,0.00,,,0.00,,2013-02-17 08:32:00,
2013-02-17 02:42:00,18.0,-99.9,-100.00,ESE,111,3.0,4.0,-999,0.00,,,0.00,,2013-02-17 08:42:00,
2013-02-17 02:52:00,18.0,-99.9,-100.00,ESE,111,3.0,4.0,-999,0.00,,,0.00,,2013-02-17 08:52:00,
2013-02-17 03:02:00,18.0,-99.9,-100.00,ESE,111,3.0,4.0,-999,0.00,,,0.00,,2013-02-17 09:02:00,
2013-02-17 03:11:00,18.0,-99.9,-100.00,ESE,105,3.0,6.0,-999,0.00,,,0.00,,2013-02-17 09:11:00,
2013-02-17 03:22:00,18.0,-99.9,-100.00,ESE,105,3.0,6.0,-999,0.00,,,0.00,,2013-02-17 09:22:00,
2013-02-17 03:32:00,18.0,-99.9,-100.00,ESE,105,3.0,6.0,-999,0.00,,,0.00,,2013-02-17 09:32:00,
2013-02-17 03:42:00,17.0,-99.9,-100.00,East,97,4.0,5.0,-999,0.00,,,0.00,,2013-02-17 09:42:00,
2013-02-17 03:52:00,17.0,-99.9,-100.00,East,97,4.0,5.0,-999,0.00,,,0.00,,2013-02-17 09:52:00,
2013-02-17 04:01:00,17.0,-99.9,-100.00,East,97,4.0,5.0,-999,0.00,,,0.00,,2013-02-17 10:01:00,
2013-02-17 04:11:00,17.0,-99.9,-100.00,ESE,106,4.0,5.0,-999,0.00,,,0.00,,2013-02-17 10:11:00,
2013-02-17 04:22:00,17.0,-99.9,-100.00,ESE,106,4.0,5.0,-999,0.00,,,0.00,,2013-02-17 10:22:00,
2013-02-17 04:32:00,17.0,-99.9,-100.00,ESE,106,4.0,5.0,-999,0.00,,,0.00,,2013-02-17 10:32:00,
2013-02-17 04:42:00,16.0,-99.9,-100.00,East,92,3.0,4.0,-999,0.00,,,0.00,,2013-02-17 10:42:00,
2013-02-17 04:52:00,16.0,-99.9,-100.00,East,92,3.0,4.0,-999,0.00,,,0.00,,2013-02-17 10:52:00,
2013-02-17 05:02:00,16.0,-99.9,-100.00,East,92,3.0,4.0,-999,0.00,,,0.00,,2013-02-17 11:02:00,
2013-02-17 05:11:00,16.0,-99.9,-100.00,East,97,2.0,3.0,-999,0.00,,,0.00,,2013-02-17 11:11:00,
2013-02-17 05:22:00,16.0,-99.9,-100.00,East,97,2.0,3.0,-999,0.00,,,0.00,,2013-02-17 11:22:00,
2013-02-17 05:32:00,16.0,-99.9,-100.00,East,97,2.0,3.0,-999,0.00,,,0.00,,2013-02-17 11:32:00,
2013-02-17 05:42:00,16.0,-99.9,-100.00,ESE,108,3.0,4.0,-999,0.00,,,0.00,,2013-02-17 11:42:00,
2013-02-17 05:53:00,16.0,-99.9,-100.00,ESE,108,3.0,4.0,-999,0.00,,,0.00,,2013-02-17 11:53:00,
2013-02-17 06:03:00,16.0,-99.9,-100.00,ESE,108,3.0,4.0,-999,0.00,,,0.00,,2013-02-17 12:03:00,
2013-02-17 06:11:00,16.0,-99.9,-100.00,ESE,113,3.0,4.0,-999,0.00,,,0.00,,2013-02-17 12:11:00,
2013-02-17 06:22:00,16.0,-99.9,-100.00,ESE,113,3.0,4.0,-999,0.00,,,0.00,,2013-02-17 12:22:00,
2013-02-17 06:32:00,16.0,-99.9,-100.00,ESE,113,3.0,4.0,-999,0.00,,,0.00,,2013-02-17 12:32:00,
2013-02-17 06:42:00,17.0,-99.9,-100.00,SE,132,4.0,7.0,-999,0.00,,,0.00,,2013-02-17 12:42:00,
2013-02-17 06:52:00,17.0,-99.9,-100.00,SE,132,4.0,7.0,-999,0.00,,,0.00,,2013-02-17 12:52:00,
2013-02-17 07:02:00,17.0,-99.9,-100.00,SE,132,4.0,7.0,-999,0.00,,,0.00,,2013-02-17 13:02:00,
2013-02-17 07:12:00,16.0,-99.9,-100.00,ESE,122,4.0,8.0,-999,0.00,,,0.00,,2013-02-17 13:12:00,
2013-02-17 07:22:00,16.0,-99.9,-100.00,ESE,122,4.0,8.0,-999,0.00,,,0.00,,2013-02-17 13:22:00,
2013-02-17 07:32:00,16.0,-99.9,-100.00,ESE,122,4.0,8.0,-999,0.00,,,0.00,,2013-02-17 13:32:00,
2013-02-17 07:42:00,16.0,-99.9,-100.00,ESE,105,5.0,7.0,-999,0.00,,,0.00,,2013-02-17 13:42:00,
2013-02-17 07:52:00,16.0,-99.9,-100.00,ESE,105,5.0,7.0,-999,0.00,,,0.00,,2013-02-17 13:52:00,
2013-02-17 08:01:00,16.0,-99.9,-100.00,ESE,105,5.0,7.0,-999,0.00,,,0.00,,2013-02-17 14:01:00,
2013-02-17 08:12:00,18.0,-99.9,-100.00,SE,140,6.0,9.0,-999,0.00,,,0.00,,2013-02-17 14:12:00,
2013-02-17 08:22:00,18.0,-99.9,-100.00,SE,140,6.0,9.0,-999,0.00,,,0.00,,2013-02-17 14:22:00,
2013-02-17 08:32:00,18.0,-99.9,-100.00,SE,140,6.0,9.0,-999,0.00,,,0.00,,2013-02-17 14:32:00,
2013-02-17 08:42:00,19.0,-99.9,-100.00,SE,137,7.0,8.0,-999,0.00,,,0.00,,2013-02-17 14:42:00,
2013-02-17 08:53:00,19.0,-99.9,-100.00,SE,137,7.0,8.0,-999,0.00,,,0.00,,2013-02-17 14:53:00,
2013-02-17 09:02:00,19.0,-99.9,-100.00,SE,137,7.0,8.0,-999,0.00,,,0.00,,2013-02-17 15:02:00,
2013-02-17 09:11:00,20.0,-99.9,-100.00,SE,141,8.0,11.0,-999,0.00,,,0.00,,2013-02-17 15:11:00,
2013-02-17 09:22:00,20.0,-99.9,-100.00,SE,141,8.0,11.0,-999,0.00,,,0.00,,2013-02-17 15:22:00,
2013-02-17 09:32:00,20.0,-99.9,-100.00,SE,141,8.0,11.0,-999,0.00,,,0.00,,2013-02-17 15:32:00,
2013-02-17 09:42:00,22.0,-99.9,-100.00,SSE,147,7.0,11.0,-999,0.00,,,0.00,,2013-02-17 15:42:00,
2013-02-17 09:52:00,22.0,-99.9,-100.00,SSE,147,7.0,11.0,-999,0.00,,,0.00,,2013-02-17 15:52:00,
2013-02-17 10:02:00,22.0,-99.9,-100.00,SSE,147,7.0,11.0,-999,0.00,,,0.00,,2013-02-17 16:02:00,
2013-02-17 10:12:00,24.0,-99.9,-100.00,SE,145,9.0,12.0,-999,0.00,,,0.00,,2013-02-17 16:12:00,
2013-02-17 10:22:00,24.0,-99.9,-100.00,SE,145,9.0,12.0,-999,0.00,,,0.00,,2013-02-17 16:22:00,
2013-02-17 10:32:00,24.0,-99.9,-100.00,SE,145,9.0,12.0,-999,0.00,,,0.00,,2013-02-17 16:32:00,
2013-02-17 10:42:00,26.0,-99.9,-100.00,SSE,148,7.0,11.0,-999,0.00,,,0.00,,2013-02-17 16:42:00,
2013-02-17 10:52:00,26.0,-99.9,-100.00,SSE,148,7.0,11.0,-999,0.00,,,0.00,,2013-02-17 16:52:00,
2013-02-17 11:02:00,26.0,-99.9,-100.00,SSE,148,7.0,11.0,-999,0.00,,,0.00,,2013-02-17 17:02:00,
2013-02-17 11:11:00,27.0,-99.9,-100.00,SSE,151,11.0,13.0,-999,0.00,,,0.00,,2013-02-17 17:11:00,
2013-02-17 11:22:00,27.0,-99.9,-100.00,SSE,151,11.0,13.0,-999,0.00,,,0.00,,2013-02-17 17:22:00,
2013-02-17 11:32:00,27.0,-99.9,-100.00,SSE,151,11.0,13.0,-999,0.00,,,0.00,,2013-02-17 17:32:00,
2013-02-17 11:42:00,29.0,-99.9,-100.00,SSE,156,12.0,17.0,-999,0.00,,,0.00,,2013-02-17 17:42:00,
2013-02-17 11:53:00,29.0,-99.9,-100.00,SSE,156,12.0,17.0,-999,0.00,,,0.00,,2013-02-17 17:53:00,
2013-02-17 12:02:00,29.0,-99.9,-100.00,SSE,156,12.0,17.0,-999,0.00,,,0.00,,2013-02-17 18:02:00,
2013-02-17 12:11:00,31.0,-99.9,-100.00,SSE,155,11.0,14.0,-999,0.00,,,0.00,,2013-02-17 18:11:00,
2013-02-17 12:22:00,31.0,-99.9,-100.00,SSE,155,11.0,14.0,-999,0.00,,,0.00,,2013-02-17 18:22:00,
2013-02-17 12:33:00,31.0,-99.9,-100.00,SSE,155,11.0,14.0,-999,0.00,,,0.00,,2013-02-17 18:33:00,
2013-02-17 12:42:00,32.0,-99.9,-100.00,SSE,149,9.0,13.0,-999,0.00,,,0.00,,2013-02-17 18:42:00,
2013-02-17 12:52:00,32.0,-99.9,-100.00,SSE,149,9.0,13.0,-999,0.00,,,0.00,,2013-02-17 18:52:00,
2013-02-17 13:02:00,32.0,-99.9,-100.00,SSE,149,9.0,13.0,-999,0.00,,,0.00,,2013-02-17 19:02:00,
2013-02-17 13:11:00,34.0,-99.9,-100.00,SSE,151,9.0,13.0,-999,0.00,,,0.00,,2013-02-17 19:11:00,
2013-02-17 13:22:00,34.0,-99.9,-100.00,SSE,151,9.0,13.0,-999,0.00,,,0.00,,2013-02-17 19:22:00,
2013-02-17 13:32:00,34.0,-99.9,-100.00,SSE,151,9.0,13.0,-999,0.00,,,0.00,,2013-02-17 19:32:00,
2013-02-17 13:42:00,35.0,-99.9,-100.00,SSE,154,10.0,14.0,-999,0.00,,,0.00,,2013-02-17 19:42:00,
2013-02-17 13:52:00,35.0,-99.9,-100.00,SSE,154,10.0,14.0,-999,0.00,,,0.00,,2013-02-17 19:52:00,
2013-02-17 14:02:00,35.0,-99.9,-100.00,SSE,154,10.0,14.0,-999,0.00,,,0.00,,2013-02-17 20:02:00,
2013-02-17 14:11:00,36.0,-99.9,-100.00,SE,143,10.0,13.0,-999,0.00,,,0.00,,2013-02-17 20:11:00,
2013-02-17 14:22:00,36.0,-99.9,-100.00,SE,143,10.0,13.0,-999,0.00,,,0.00,,2013-02-17 20:22:00,
2013-02-17 14:32:00,36.0,-99.9,-100.00,SE,143,10.0,13.0,-999,0.00,,,0.00,,2013-02-17 20:32:00,
2013-02-17 14:43:00,36.0,-99.9,-100.00,SE,144,13.0,18.0,-999,0.00,,,0.00,,2013-02-17 20:43:00,
2013-02-17 14:52:00,36.0,-99.9,-100.00,SE,144,13.0,18.0,-999,0.00,,,0.00,,2013-02-17 20:52:00,
2013-02-17 15:02:00,36.0,-99.9,-100.00,SE,144,13.0,18.0,-999,0.00,,,0.00,,2013-02-17 21:02:00,
2013-02-17 15:11:00,38.0,-99.9,-100.00,SE,140,10.0,13.0,-999,0.00,,,0.00,,2013-02-17 21:11:00,
2013-02-17 15:22:00,38.0,-99.9,-100.00,SE,140,10.0,13.0,-999,0.00,,,0.00,,2013-02-17 21:22:00,
2013-02-17 15:32:00,38.0,-99.9,-100.00,SE,140,10.0,13.0,-999,0.00,,,0.00,,2013-02-17 21:32:00,
2013-02-17 15:42:00,38.0,-99.9,-100.00,SE,132,12.0,18.0,-999,0.00,,,0.00,,2013-02-17 21:42:00,
2013-02-17 15:53:00,38.0,-99.9,-100.00,SE,132,12.0,18.0,-999,0.00,,,0.00,,2013-02-17 21:53:00,
2013-02-17 16:01:00,38.0,-99.9,-100.00,SE,132,12.0,18.0,-999,0.00,,,0.00,,2013-02-17 22:01:00,
2013-02-17 16:12:00,39.0,-99.9,-100.00,SE,134,10.0,14.0,-999,0.00,,,0.00,,2013-02-17 22:12:00,
2013-02-17 16:22:00,39.0,-99.9,-100.00,SE,134,10.0,14.0,-999,0.00,,,0.00,,2013-02-17 22:22:00,
2013-02-17 16:32:00,39.0,-99.9,-100.00,SE,134,10.0,14.0,-999,0.00,,,0.00,,2013-02-17 22:32:00,
2013-02-17 16:42:00,39.0,-99.9,-100.00,SE,144,10.0,13.0,-999,0.00,,,0.00,,2013-02-17 22:42:00,
2013-02-17 16:52:00,39.0,-99.9,-100.00,SE,144,10.0,13.0,-999,0.00,,,0.00,,2013-02-17 22:52:00,
2013-02-17 17:02:00,39.0,-99.9,-100.00,SE,144,10.0,13.0,-999,0.00,,,0.00,,2013-02-17 23:02:00,
2013-02-17 17:11:00,38.0,-99.9,-100.00,SE,141,12.0,15.0,-999,0.00,,,0.00,,2013-02-17 23:11:00,
2013-02-17 17:22:00,38.0,-99.9,-100.00,SE,141,12.0,15.0,-999,0.00,,,0.00,,2013-02-17 23:22:00,
2013-02-17 17:32:00,38.0,-99.9,-100.00,SE,141,12.0,15.0,-999,0.00,,,0.00,,2013-02-17 23:32:00,
2013-02-17 17:42:00,38.0,-99.9,-100.00,SE,142,10.0,16.0,-999,0.00,,,0.00,,2013-02-17 23:42:00,
2013-02-17 17:52:00,38.0,-99.9,-100.00,SE,142,10.0,16.0,-999,0.00,,,0.00,,2013-02-17 23:52:00,
2013-02-17 18:02:00,38.0,-99.9,-100.00,SE,142,10.0,16.0,-999,0.00,,,0.00,,2013-02-18 00:02:00,
2013-02-17 18:12:00,37.0,-99.9,-100.00,SE,129,8.0,12.0,-999,0.00,,,0.00,,2013-02-18 00:12:00,
2013-02-17 18:22:00,37.0,-99.9,-100.00,SE,129,8.0,12.0,-999,0.00,,,0.00,,2013-02-18 00:22:00,
2013-02-17 18:32:00,37.0,-99.9,-100.00,SE,129,8.0,12.0,-999,0.00,,,0.00,,2013-02-18 00:32:00,
2013-02-17 18:40:00,36.0,-99.9,-100.00,SE,130,8.0,12.0,-999,0.00,,,0.00,,2013-02-18 00:40:00,
2013-02-17 18:42:00,36.0,-99.9,-100.00,SE,125,8.0,12.0,-999,0.00,,,0.00,,2013-02-18 00:42:00,
2013-02-17 18:52:00,36.0,-99.9,-100.00,SE,125,8.0,12.0,-999,0.00,,,0.00,,2013-02-18 00:52:00,
2013-02-17 19:01:00,36.0,-99.9,-100.00,SE,125,8.0,12.0,-999,0.00,,,0.00,,2013-02-18 01:01:00,
2013-02-17 19:12:00,36.0,-99.9,-100.00,SE,130,8.0,12.0,-999,0.00,,,0.00,,2013-02-18 01:12:00,
2013-02-17 19:22:00,36.0,-99.9,-100.00,SE,130,8.0,12.0,-999,0.00,,,0.00,,2013-02-18 01:22:00,
2013-02-17 19:32:00,36.0,-99.9,-100.00,SE,130,8.0,12.0,-999,0.00,,,0.00,,2013-02-18 01:32:00,
2013-02-17 20:11:00,36.0,-99.9,-100.00,SE,140,12.0,17.0,-999,0.00,,,0.00,,2013-02-18 02:11:00,
2013-02-17 20:22:00,36.0,-99.9,-100.00,SE,140,12.0,17.0,-999,0.00,,,0.00,,2013-02-18 02:22:00,
2013-02-17 20:32:00,36.0,-99.9,-100.00,SE,140,12.0,17.0,-999,0.00,,,0.00,,2013-02-18 02:32:00,
2013-02-17 20:42:00,36.0,-99.9,-100.00,SE,141,11.0,15.0,-999,0.00,,,0.00,,2013-02-18 02:42:00,
2013-02-17 20:52:00,36.0,-99.9,-100.00,SE,141,11.0,15.0,-999,0.00,,,0.00,,2013-02-18 02:52:00,
2013-02-17 21:02:00,36.0,-99.9,-100.00,SE,141,11.0,15.0,-999,0.00,,,0.00,,2013-02-18 03:02:00,
2013-02-17 21:12:00,36.0,-99.9,-100.00,SE,143,11.0,15.0,-999,0.00,,,0.00,,2013-02-18 03:12:00,
2013-02-17 21:22:00,36.0,-99.9,-100.00,SE,143,11.0,15.0,-999,0.00,,,0.00,,2013-02-18 03:22:00,
2013-02-17 21:32:00,36.0,-99.9,-100.00,SE,143,11.0,15.0,-999,0.00,,,0.00,,2013-02-18 03:32:00,
2013-02-17 21:42:00,35.0,-99.9,-100.00,SE,134,11.0,16.0,-999,0.00,,,0.00,,2013-02-18 03:42:00,
2013-02-17 21:52:00,35.0,-99.9,-100.00,SE,134,11.0,16.0,-999,0.00,,,0.00,,2013-02-18 03:52:00,
2013-02-17 22:01:00,35.0,-99.9,-100.00,SE,134,11.0,16.0,-999,0.00,,,0.00,,2013-02-18 04:01:00,
2013-02-17 22:11:00,35.0,-99.9,-100.00,SSE,147,12.0,18.0,-999,0.00,,,0.00,,2013-02-18 04:11:00,
2013-02-17 22:22:00,35.0,-99.9,-100.00,SSE,147,12.0,18.0,-999,0.00,,,0.00,,2013-02-18 04:22:00,
2013-02-17 22:32:00,35.0,-99.9,-100.00,SSE,147,12.0,18.0,-999,0.00,,,0.00,,2013-02-18 04:32:00,
2013-02-17 22:42:00,35.0,-99.9,-100.00,SE,137,11.0,13.0,-999,0.00,,,0.00,,2013-02-18 04:42:00,
2013-02-17 22:52:00,35.0,-99.9,-100.00,SE,137,11.0,13.0,-999,0.00,,,0.00,,2013-02-18 04:52:00,
2013-02-17 23:02:00,35.0,-99.9,-100.00,SE,137,11.0,13.0,-999,0.00,,,0.00,,2013-02-18 05:02:00,
2013-02-17 23:11:00,35.0,-99.9,-100.00,SE,145,12.0,17.0,-999,0.00,,,0.00,,2013-02-18 05:11:00,
2013-02-17 23:22:00,35.0,-99.9,-100.00,SE,145,12.0,17.0,-999,0.00,,,0.00,,2013-02-18 05:22:00,
2013-02-17 23:32:00,35.0,-99.9,-100.00,SE,145,12.0,17.0,-999,0.00,,,0.00,,2013-02-18 05:32:00,
2013-02-17 23:42:00,35.0,-99.9,-100.00,SE,145,12.0,14.0,-999,0.00,,,0.00,,2013-02-18 05:42:00,
2013-02-17 23:52:00,35.0,-99.9,-100.00,SE,145,12.0,14.0,-999,0.00,,,0.00,,2013-02-18 05:52:00,